createdAt,value
2022-09-14T00:01:28.700Z,70.01
2022-09-14T00:04:04.846Z,70.38
2022-09-14T00:06:32.810Z,70.57
2022-09-14T00:09:01.434Z,70.43
2022-09-14T00:11:30.744Z,70.92
2022-09-14T00:13:59.711Z,70.18
2022-09-14T00:16:30.063Z,70.60
2022-09-14T00:19:01.073Z,70.88
2022-09-14T00:21:28.546Z,71.21
2022-09-14T00:23:55.643Z,71.32
2022-09-14T00:26:23.813Z,71.25
2022-09-14T00:28:56.312Z,71.45
2022-09-14T00:31:24.370Z,71.17
2022-09-14T00:33:53.080Z,71.90
2022-09-14T00:36:26.602Z,71.81
2022-09-14T00:38:56.826Z,71.06
2022-09-14T00:41:29.979Z,71.99
2022-09-14T00:43:58.900Z,71.67
2022-09-14T00:46:28.325Z,71.90
2022-09-14T00:48:58.703Z,71.76
2022-09-14T00:51:26.795Z,71.78
2022-09-14T00:53:54.048Z,71.71
2022-09-14T00:56:21.921Z,71.62
2022-09-14T00:58:53.232Z,71.46
2022-09-14T01:01:20.591Z,71.64
2022-09-14T01:03:47.707Z,71.74
2022-09-14T01:06:35.498Z,71.73
2022-09-14T01:09:05.484Z,72.03
2022-09-14T01:11:38.291Z,71.79
2022-09-14T01:14:13.243Z,71.76
2022-09-14T01:16:47.852Z,71.16
2022-09-14T01:19:44.545Z,71.88
2022-09-14T01:22:52.948Z,71.60
2022-09-14T01:25:20.104Z,71.78
2022-09-14T01:27:49.622Z,71.22
2022-09-14T01:30:23.032Z,71.42
2022-09-14T01:33:15.202Z,72.01
2022-09-14T01:35:51.346Z,71.75
2022-09-14T01:38:36.291Z,70.88
2022-09-14T01:41:07.310Z,71.33
2022-09-14T01:43:40.998Z,71.47
2022-09-14T01:46:13.666Z,71.72
2022-09-14T01:48:50.707Z,71.94
2022-09-14T01:51:28.526Z,72.01
2022-09-14T01:54:03.740Z,72.14
2022-09-14T01:56:36.935Z,72.25
2022-09-14T01:59:07.328Z,71.97
2022-09-14T02:01:50.648Z,72.51
2022-09-14T02:04:29.645Z,72.79
2022-09-14T02:06:57.181Z,72.42
2022-09-14T02:09:26.964Z,72.78
2022-09-14T02:12:00.730Z,73.09
2022-09-14T02:14:29.178Z,72.98
2022-09-14T02:16:56.365Z,73.26
2022-09-14T02:19:26.157Z,73.10
2022-09-14T02:21:53.791Z,72.53
2022-09-14T02:24:20.957Z,73.03
2022-09-14T02:26:51.376Z,73.06
2022-09-14T02:29:18.572Z,73.20
2022-09-14T02:32:18.632Z,72.15
2022-09-14T02:34:57.871Z,72.77
2022-09-14T02:37:38.027Z,73.50
2022-09-14T02:40:18.469Z,73.16
2022-09-14T02:43:09.182Z,73.20
2022-09-14T02:45:36.127Z,73.53
2022-09-14T02:48:18.265Z,73.91
2022-09-14T02:50:55.045Z,73.69
2022-09-14T02:53:30.420Z,73.64
2022-09-14T02:56:04.815Z,73.67
2022-09-14T02:58:44.090Z,73.96
2022-09-14T03:01:15.545Z,73.70
2022-09-14T03:03:42.783Z,74.06
2022-09-14T03:06:10.127Z,73.73
2022-09-14T03:08:37.456Z,73.90
2022-09-14T03:11:06.154Z,73.65
2022-09-14T03:13:34.933Z,74.20
2022-09-14T03:16:20.124Z,74.70
2022-09-14T03:18:47.307Z,74.20
2022-09-14T03:21:16.533Z,74.09
2022-09-14T03:23:46.398Z,74.57
2022-09-14T03:26:17.046Z,74.48
2022-09-14T03:28:45.274Z,74.38
2022-09-14T03:31:13.457Z,74.61
2022-09-14T03:33:40.866Z,74.61
2022-09-14T03:36:17.258Z,75.00
2022-09-14T03:38:48.148Z,74.20
2022-09-14T03:41:15.326Z,74.79
2022-09-14T03:43:43.468Z,75.04
2022-09-14T03:46:14.115Z,75.10
2022-09-14T03:48:41.308Z,75.33
2022-09-14T03:51:10.104Z,75.14
2022-09-14T03:53:38.221Z,74.94
2022-09-14T03:56:10.992Z,74.85
2022-09-14T03:58:38.759Z,75.21
2022-09-14T04:01:11.212Z,74.67
2022-09-14T04:03:38.670Z,74.71
2022-09-14T04:06:06.889Z,74.88
2022-09-14T04:08:35.830Z,74.99
2022-09-14T04:11:11.824Z,75.42
2022-09-14T04:13:39.291Z,75.40
2022-09-14T04:16:06.663Z,74.96
2022-09-14T04:18:33.888Z,75.27
2022-09-14T04:21:08.449Z,75.12
2022-09-14T04:24:10.236Z,74.95
2022-09-14T04:26:26.901Z,74.84
2022-09-14T04:28:55.126Z,75.12
2022-09-14T04:31:22.518Z,74.88
2022-09-14T04:33:50.904Z,74.52
2022-09-14T04:36:20.811Z,74.39
2022-09-14T04:38:48.396Z,74.41
2022-09-14T04:41:17.373Z,74.07
2022-09-14T04:43:46.322Z,74.39
2022-09-14T04:46:21.747Z,74.14
2022-09-14T04:48:49.545Z,74.06
2022-09-14T04:51:20.238Z,74.19
2022-09-14T04:53:50.565Z,73.89
2022-09-14T04:56:18.952Z,73.82
2022-09-14T04:58:51.565Z,74.09
2022-09-14T05:01:22.047Z,73.89
2022-09-14T05:03:49.661Z,74.54
2022-09-14T05:06:19.651Z,74.24
2022-09-14T05:08:47.684Z,74.42
2022-09-14T05:11:20.941Z,74.34
2022-09-14T05:13:50.131Z,73.93
2022-09-14T05:16:20.770Z,73.96
2022-09-14T05:18:49.066Z,73.73
2022-09-14T05:21:18.047Z,73.62
2022-09-14T05:23:45.653Z,73.98
2022-09-14T05:26:13.697Z,73.66
2022-09-14T05:28:41.049Z,73.92
2022-09-14T05:31:10.647Z,73.81
2022-09-14T05:33:37.831Z,73.42
2022-09-14T05:36:07.339Z,73.38
2022-09-14T05:38:36.319Z,73.17
2022-09-14T05:41:04.503Z,73.41
2022-09-14T05:43:32.227Z,73.11
2022-09-14T05:46:04.103Z,73.24
2022-09-14T05:48:32.796Z,73.13
2022-09-14T05:51:07.522Z,73.15
2022-09-14T05:53:34.874Z,73.13
2022-09-14T05:56:13.924Z,73.13
2022-09-14T05:58:42.530Z,73.00
2022-09-14T06:01:20.113Z,72.80
2022-09-14T06:03:48.575Z,72.69
2022-09-14T06:06:18.692Z,72.44
2022-09-14T06:08:46.834Z,72.51
2022-09-14T06:11:16.473Z,72.06
2022-09-14T06:13:44.463Z,72.13
2022-09-14T06:16:14.263Z,72.12
2022-09-14T06:18:43.099Z,72.16
2022-09-14T06:21:15.440Z,72.19
2022-09-14T06:23:43.537Z,71.72
2022-09-14T06:26:10.950Z,71.58
2022-09-14T06:28:39.381Z,71.64
2022-09-14T06:31:10.075Z,71.51
2022-09-14T06:33:37.464Z,71.33
2022-09-14T06:36:12.433Z,71.69
2022-09-14T06:38:40.690Z,71.99
2022-09-14T06:41:09.895Z,71.54
2022-09-14T06:43:40.386Z,71.39
2022-09-14T06:46:16.564Z,71.33
2022-09-14T06:48:56.067Z,71.61
2022-09-14T06:51:31.793Z,71.12
2022-09-14T06:54:00.331Z,71.46
2022-09-14T06:56:37.329Z,71.32
2022-09-14T06:59:05.225Z,70.64
2022-09-14T07:01:32.814Z,71.50
2022-09-14T07:04:01.824Z,71.33
2022-09-14T07:06:33.426Z,71.01
2022-09-14T07:09:04.159Z,71.09
2022-09-14T07:11:31.947Z,71.56
2022-09-14T07:13:59.160Z,70.72
2022-09-14T07:16:27.350Z,70.72
2022-09-14T07:18:55.682Z,70.48
2022-09-14T07:21:23.596Z,70.43
2022-09-14T07:23:51.394Z,70.04
2022-09-14T07:26:30.670Z,70.06
2022-09-14T07:29:00.401Z,70.27
2022-09-14T07:31:30.449Z,69.91
2022-09-14T07:34:00.078Z,70.04
2022-09-14T07:36:31.609Z,70.00
2022-09-14T07:39:02.167Z,70.36
2022-09-14T07:41:30.604Z,70.71
2022-09-14T07:44:00.644Z,71.15
2022-09-14T07:46:29.697Z,71.09
2022-09-14T07:48:58.941Z,71.13
2022-09-14T07:51:28.107Z,71.47
2022-09-14T07:53:55.626Z,71.63
2022-09-14T07:56:23.219Z,71.93
2022-09-14T07:58:55.404Z,71.84
2022-09-14T08:01:26.428Z,72.16
2022-09-14T08:03:53.554Z,72.53
2022-09-14T08:06:23.039Z,72.35
2022-09-14T08:08:52.039Z,72.57
2022-09-14T08:11:20.916Z,72.99
2022-09-14T08:14:10.273Z,73.02
2022-09-14T08:16:41.696Z,72.89
2022-09-14T08:19:13.914Z,72.83
2022-09-14T08:21:46.264Z,72.86
2022-09-14T08:24:16.365Z,72.81
2022-09-14T08:26:43.840Z,72.79
2022-09-14T08:29:13.641Z,72.28
2022-09-14T08:31:41.129Z,72.42
2022-09-14T08:34:08.908Z,72.27
2022-09-14T08:36:38.288Z,71.78
2022-09-14T08:39:09.385Z,71.80
2022-09-14T08:42:06.298Z,71.69
2022-09-14T08:44:52.396Z,71.21
2022-09-14T08:47:38.979Z,71.62
2022-09-14T08:50:21.355Z,71.57
2022-09-14T08:52:53.022Z,71.48
2022-09-14T08:55:43.164Z,71.57
2022-09-14T08:58:10.034Z,71.66
2022-09-14T09:00:47.054Z,71.80
2022-09-14T09:03:42.963Z,71.45
2022-09-14T09:06:23.705Z,71.89
2022-09-14T09:09:04.749Z,71.44
2022-09-14T09:11:41.457Z,71.51
2022-09-14T09:14:23.460Z,71.39
2022-09-14T09:16:54.003Z,71.20
2022-09-14T09:20:01.302Z,70.56
2022-09-14T09:22:31.725Z,70.83
2022-09-14T09:25:00.865Z,71.67
2022-09-14T09:27:28.005Z,70.91
2022-09-14T09:29:55.304Z,70.60
2022-09-14T09:32:25.702Z,70.79
2022-09-14T09:35:24.255Z,71.23
2022-09-14T09:37:56.994Z,70.67
2022-09-14T09:40:47.108Z,71.21
2022-09-14T09:43:29.017Z,71.37
2022-09-14T09:46:07.922Z,71.12
2022-09-14T09:48:43.990Z,71.04
2022-09-14T09:51:27.309Z,70.82
2022-09-14T09:53:57.029Z,70.54
2022-09-14T09:56:27.805Z,70.19
2022-09-14T09:58:55.003Z,69.91
2022-09-14T10:01:26.702Z,69.95
2022-09-14T10:04:04.756Z,70.08
2022-09-14T10:06:32.044Z,69.89
2022-09-14T10:08:59.289Z,70.01
2022-09-14T10:11:31.545Z,69.97
2022-09-14T10:13:59.238Z,70.75
2022-09-14T10:16:33.265Z,70.46
2022-09-14T10:19:02.900Z,71.19
2022-09-14T10:21:31.428Z,71.58
2022-09-14T10:24:20.343Z,71.29
2022-09-14T10:26:47.285Z,70.88
2022-09-14T10:29:35.544Z,70.92
2022-09-14T10:32:12.813Z,71.05
2022-09-14T10:34:40.006Z,71.11
2022-09-14T10:37:32.179Z,70.96
2022-09-14T10:40:08.235Z,70.88
2022-09-14T10:42:41.141Z,70.99
2022-09-14T10:45:23.889Z,71.15
2022-09-14T10:48:18.737Z,71.23
2022-09-14T10:50:53.664Z,71.22
2022-09-14T10:53:42.541Z,71.51
2022-09-14T10:56:22.096Z,71.98
2022-09-14T10:59:05.604Z,72.55
2022-09-14T11:02:09.683Z,73.29
2022-09-14T11:04:59.981Z,72.48
2022-09-14T11:07:54.583Z,72.68
2022-09-14T11:10:26.186Z,72.48
2022-09-14T11:13:25.202Z,73.36
2022-09-14T11:15:58.630Z,73.02
2022-09-14T11:18:44.938Z,72.97
2022-09-14T11:21:17.931Z,72.76
2022-09-14T11:24:25.662Z,72.69
2022-09-14T11:27:04.485Z,72.97
2022-09-14T11:29:52.032Z,72.43
2022-09-14T11:32:25.315Z,72.46
2022-09-14T11:35:03.472Z,72.81
2022-09-14T11:37:36.951Z,72.96
2022-09-14T11:40:14.589Z,73.30
2022-09-14T11:43:08.977Z,73.13
2022-09-14T11:45:53.744Z,73.47
2022-09-14T11:48:43.651Z,73.67
2022-09-14T11:51:19.392Z,73.43
2022-09-14T11:53:47.389Z,73.40
2022-09-14T11:56:32.185Z,73.63
2022-09-14T11:59:03.528Z,73.39
2022-09-14T12:01:37.050Z,73.30
2022-09-14T12:04:16.760Z,73.37
2022-09-14T12:06:54.172Z,73.22
2022-09-14T12:09:21.653Z,73.21
2022-09-14T12:11:54.550Z,72.99
2022-09-14T12:14:24.772Z,73.02
2022-09-14T12:20:43.106Z,72.95
2022-09-14T12:23:20.828Z,72.72
2022-09-14T12:25:58.526Z,72.51
2022-09-14T12:28:30.505Z,72.31
2022-09-14T12:30:57.480Z,72.04
2022-09-14T12:33:31.249Z,71.96
2022-09-14T12:35:58.879Z,71.75
2022-09-14T12:38:31.834Z,71.85
2022-09-14T12:41:00.974Z,71.75
2022-09-14T12:43:34.226Z,71.60
2022-09-14T12:46:01.377Z,71.63
2022-09-14T12:48:49.569Z,71.52
2022-09-14T12:51:32.664Z,71.87
2022-09-14T12:54:08.809Z,71.78
2022-09-14T12:57:03.130Z,71.69
2022-09-14T12:59:36.297Z,71.88
2022-09-14T13:02:25.399Z,72.04
2022-09-14T13:04:55.412Z,71.82
2022-09-14T13:07:23.396Z,71.62
2022-09-14T13:09:53.436Z,71.43
2022-09-14T13:12:34.677Z,71.38
2022-09-14T13:15:06.861Z,71.47
2022-09-14T13:17:33.905Z,71.36
2022-09-14T13:20:06.027Z,71.16
2022-09-14T13:22:33.956Z,70.94
2022-09-14T13:25:01.677Z,71.17
2022-09-14T13:27:36.284Z,71.10
2022-09-14T13:30:08.122Z,71.14
2022-09-14T13:32:41.337Z,71.35
2022-09-14T13:35:23.086Z,71.05
2022-09-14T13:37:50.590Z,71.04
2022-09-14T13:40:28.724Z,71.12
2022-09-14T13:42:57.987Z,71.27
2022-09-14T13:45:25.768Z,71.78
2022-09-14T13:47:54.465Z,71.64
2022-09-14T13:50:25.497Z,71.62
2022-09-14T13:53:03.019Z,71.52
2022-09-14T13:55:34.195Z,71.43
2022-09-14T13:58:24.839Z,71.65
2022-09-14T14:01:03.979Z,71.73
2022-09-14T14:03:37.520Z,71.22
2022-09-14T14:06:29.536Z,71.46
2022-09-14T14:09:03.852Z,71.34
2022-09-14T14:11:37.927Z,71.22
2022-09-14T14:14:17.204Z,71.13
2022-09-14T14:17:29.455Z,71.05
2022-09-14T14:19:59.173Z,71.31
2022-09-14T14:22:37.710Z,71.23
2022-09-14T14:25:28.625Z,71.16
2022-09-14T14:28:01.560Z,71.22
2022-09-14T14:30:30.646Z,70.82
2022-09-14T14:32:59.552Z,71.24
2022-09-14T14:35:30.403Z,71.42
2022-09-14T14:37:58.442Z,71.13
2022-09-14T14:40:27.776Z,70.64
2022-09-14T14:42:55.573Z,70.50
2022-09-14T14:45:27.262Z,70.69
2022-09-14T14:47:55.953Z,71.01
2022-09-14T14:50:28.763Z,70.95
2022-09-14T14:52:57.206Z,70.70
2022-09-14T14:55:25.815Z,70.44
2022-09-14T14:57:53.108Z,70.58
2022-09-14T15:00:24.383Z,70.44
2022-09-14T15:02:52.474Z,70.16
2022-09-14T15:05:20.316Z,70.67
2022-09-14T15:07:49.837Z,70.50
2022-09-14T15:10:18.262Z,69.99
2022-09-14T15:12:46.026Z,70.22
2022-09-14T15:15:24.790Z,70.35
2022-09-14T15:17:52.857Z,70.13
2022-09-14T15:20:21.240Z,70.41
2022-09-14T15:22:48.950Z,70.47
2022-09-14T15:25:18.122Z,70.33
2022-09-14T15:27:45.692Z,70.50
2022-09-14T15:30:15.750Z,70.49
2022-09-14T15:32:43.165Z,70.26
2022-09-14T15:35:14.328Z,70.59
2022-09-14T15:37:42.002Z,70.63
2022-09-14T15:40:11.001Z,70.54
2022-09-14T15:42:38.936Z,70.46
2022-09-14T15:45:07.517Z,70.38
2022-09-14T15:47:36.633Z,70.43
2022-09-14T15:50:05.386Z,70.90
2022-09-14T15:52:36.223Z,70.91
2022-09-14T15:55:06.493Z,71.19
2022-09-14T15:57:34.465Z,71.17
2022-09-14T16:00:04.644Z,71.34
2022-09-14T16:02:42.207Z,71.33
2022-09-14T16:05:09.890Z,71.45
2022-09-14T16:07:37.034Z,71.06
2022-09-14T16:10:04.529Z,71.36
2022-09-14T16:12:31.836Z,71.00
2022-09-14T16:14:58.853Z,71.16
2022-09-14T16:17:26.462Z,71.24
2022-09-14T16:19:53.987Z,71.24
2022-09-14T16:22:22.235Z,71.27
2022-09-14T16:24:52.978Z,71.47
2022-09-14T16:27:20.507Z,71.53
2022-09-14T16:29:47.926Z,71.05
2022-09-14T16:32:15.950Z,70.94
2022-09-14T16:34:43.390Z,71.07
2022-09-14T16:37:11.024Z,71.21
2022-09-14T16:39:38.256Z,71.28
2022-09-14T16:42:05.706Z,71.25
2022-09-14T16:44:33.513Z,71.25
2022-09-14T16:47:03.481Z,71.33
2022-09-14T16:49:31.130Z,71.53
2022-09-14T16:52:00.981Z,71.68
2022-09-14T16:54:30.002Z,71.83
2022-09-14T16:56:58.402Z,71.31
2022-09-14T16:59:27.053Z,71.77
2022-09-14T17:01:55.380Z,71.83
2022-09-14T17:04:25.149Z,71.77
2022-09-14T17:06:53.131Z,71.81
2022-09-14T17:09:26.622Z,71.71
2022-09-14T17:11:54.824Z,71.68
2022-09-14T17:14:25.480Z,71.86
2022-09-14T17:16:53.714Z,71.98
2022-09-14T17:19:21.473Z,71.93
2022-09-14T17:21:49.660Z,72.24
2022-09-14T17:24:20.752Z,72.24
2022-09-14T17:26:48.291Z,72.07
2022-09-14T17:29:15.873Z,72.14
2022-09-14T17:31:44.387Z,72.20
2022-09-14T17:34:13.836Z,72.49
2022-09-14T17:36:41.143Z,72.33
2022-09-14T17:39:12.207Z,72.45
2022-09-14T17:41:44.378Z,72.71
2022-09-14T17:44:14.260Z,72.49
2022-09-14T17:46:52.844Z,72.65
2022-09-14T17:49:23.158Z,72.63
2022-09-14T17:51:53.508Z,72.59
2022-09-14T17:54:21.667Z,72.62
2022-09-14T17:56:49.115Z,72.54
2022-09-14T17:59:20.272Z,72.64
2022-09-14T18:01:49.444Z,72.45
2022-09-14T18:04:18.126Z,72.21
2022-09-14T18:06:49.963Z,72.41
2022-09-14T18:09:20.311Z,72.72
2022-09-14T18:11:49.684Z,72.77
2022-09-14T18:14:17.237Z,72.72
2022-09-14T18:16:45.082Z,73.11
2022-09-14T18:19:13.388Z,72.53
2022-09-14T18:21:41.740Z,72.63
2022-09-14T18:24:11.727Z,72.80
2022-09-14T18:26:39.051Z,72.90
2022-09-14T18:29:06.291Z,72.79
2022-09-14T18:31:33.510Z,73.18
2022-09-14T18:34:01.342Z,73.13
2022-09-14T18:36:30.030Z,73.14
2022-09-14T18:38:58.891Z,73.10
2022-09-14T18:41:29.013Z,72.89
2022-09-14T18:43:56.126Z,73.24
2022-09-14T18:46:27.782Z,73.14
2022-09-14T18:49:00.657Z,73.08
2022-09-14T18:51:30.139Z,73.09
2022-09-14T18:54:03.777Z,73.00
2022-09-14T18:56:35.042Z,72.75
2022-09-14T18:59:04.641Z,72.99
2022-09-14T19:01:33.798Z,72.87
2022-09-14T19:04:03.876Z,72.84
2022-09-14T19:06:33.287Z,72.81
2022-09-14T19:09:01.136Z,72.98
2022-09-14T19:11:30.720Z,72.53
2022-09-14T19:14:03.429Z,73.02
2022-09-14T19:16:30.985Z,72.76
2022-09-14T19:18:58.890Z,72.78
2022-09-14T19:21:29.765Z,72.75
2022-09-14T19:24:08.345Z,72.93
2022-09-14T19:26:44.770Z,72.88
2022-09-14T19:29:18.136Z,72.91
2022-09-14T19:31:48.602Z,72.87
2022-09-14T19:34:15.719Z,73.18
2022-09-14T19:36:42.869Z,73.01
2022-09-14T19:39:10.747Z,72.83
2022-09-14T19:41:38.024Z,72.71
2022-09-14T19:44:06.944Z,73.14
2022-09-14T19:46:36.501Z,73.37
2022-09-14T19:49:03.591Z,73.07
2022-09-14T19:51:31.219Z,73.01
2022-09-14T19:54:00.633Z,73.19
2022-09-14T19:56:29.869Z,73.29
2022-09-14T19:59:00.141Z,73.15
2022-09-14T20:01:29.201Z,73.50
2022-09-14T20:03:56.755Z,73.48
2022-09-14T20:06:36.162Z,73.44
2022-09-14T20:09:06.325Z,73.20
2022-09-14T20:11:35.225Z,73.21
2022-09-14T20:14:04.966Z,73.38
2022-09-14T20:16:38.443Z,73.40
2022-09-14T20:19:11.907Z,73.28
2022-09-14T20:21:41.247Z,73.08
2022-09-14T20:24:16.128Z,73.23
2022-09-14T20:26:49.116Z,73.53
2022-09-14T20:29:17.912Z,73.12
2022-09-14T20:31:45.771Z,73.22
2022-09-14T20:34:14.231Z,73.24
2022-09-14T20:36:41.626Z,73.00
2022-09-14T20:39:09.405Z,72.80
2022-09-14T20:41:36.872Z,72.97
2022-09-14T20:44:05.154Z,73.20
2022-09-14T20:46:40.680Z,73.24
2022-09-14T20:49:13.330Z,72.98
2022-09-14T20:51:41.406Z,73.10
2022-09-14T20:54:12.623Z,73.33
2022-09-14T20:56:40.492Z,73.30
2022-09-14T20:59:10.631Z,73.49
2022-09-14T21:01:39.876Z,73.77
2022-09-14T21:04:10.152Z,73.73
2022-09-14T21:06:39.907Z,73.62
2022-09-14T21:09:08.473Z,73.76
2022-09-14T21:11:36.120Z,73.78
2022-09-14T21:14:03.290Z,73.75
2022-09-14T21:16:37.078Z,73.99
2022-09-14T21:19:07.060Z,74.15
2022-09-14T21:21:34.769Z,74.35
2022-09-14T21:24:03.040Z,74.31
2022-09-14T21:26:34.199Z,74.61
2022-09-14T21:29:05.073Z,74.39
2022-09-14T21:31:34.262Z,74.61
2022-09-14T21:34:03.221Z,74.50
2022-09-14T21:36:42.899Z,74.97
2022-09-14T21:39:16.029Z,74.70
2022-09-14T21:41:45.006Z,75.08
2022-09-14T21:44:13.625Z,75.17
2022-09-14T21:46:41.450Z,75.73
2022-09-14T21:49:16.363Z,75.58
2022-09-14T21:51:43.507Z,75.94
2022-09-14T21:54:13.070Z,76.04
2022-09-14T21:56:43.078Z,76.30
2022-09-14T21:59:19.329Z,76.49
2022-09-14T22:01:47.145Z,76.45
2022-09-14T22:04:19.583Z,76.29
2022-09-14T22:06:47.355Z,76.82
2022-09-14T22:09:16.851Z,76.76
2022-09-14T22:11:44.017Z,76.58
2022-09-14T22:14:20.437Z,76.63
2022-09-14T22:16:48.990Z,76.82
2022-09-14T22:19:18.049Z,76.83
2022-09-14T22:21:45.598Z,76.97
2022-09-14T22:24:16.190Z,76.94
2022-09-14T22:26:44.586Z,77.04
2022-09-14T22:29:13.159Z,77.06
2022-09-14T22:31:42.798Z,76.86
2022-09-14T22:34:10.197Z,77.12
2022-09-14T22:36:38.282Z,77.27
2022-09-14T22:39:05.771Z,77.27
2022-09-14T22:41:33.448Z,77.37
2022-09-14T22:44:00.594Z,77.32
2022-09-14T22:46:27.775Z,77.09
2022-09-14T22:48:55.000Z,77.39
2022-09-14T22:51:24.718Z,77.43
2022-09-14T22:53:52.850Z,77.32
2022-09-14T22:56:29.809Z,77.55
2022-09-14T22:58:56.827Z,77.36
2022-09-14T23:01:27.094Z,77.01
2022-09-14T23:03:57.236Z,77.21
2022-09-14T23:06:36.984Z,77.61
2022-09-14T23:09:04.798Z,77.39
2022-09-14T23:11:31.955Z,77.44
2022-09-14T23:13:59.524Z,77.41
2022-09-14T23:16:29.963Z,77.21
2022-09-14T23:18:59.878Z,77.19
2022-09-14T23:21:28.686Z,77.38
2022-09-14T23:23:58.036Z,77.04
2022-09-14T23:26:25.916Z,77.19
2022-09-14T23:28:58.186Z,77.18
2022-09-14T23:31:25.785Z,77.36
2022-09-14T23:33:59.605Z,77.33
2022-09-14T23:36:27.809Z,77.16
2022-09-14T23:38:55.005Z,77.34
2022-09-14T23:41:23.769Z,77.28
2022-09-14T23:43:51.929Z,77.25
2022-09-14T23:46:19.958Z,77.50
2022-09-14T23:48:47.383Z,77.40
2022-09-14T23:51:15.098Z,77.28
2022-09-14T23:53:43.305Z,77.43
2022-09-14T23:56:11.616Z,77.72
2022-09-14T23:58:39.327Z,77.76
